Tomah, WI (54660)

4:43 PM CST on February 24, 2017 (GMT -0600)
Tomah City Airport | | Change Station
Active Advisory: Winter Weather Advisory Active Notice: Public Information Statement

Elev 966 ft 43.97 °N, 90.49 °W | Updated 14 minutes ago

Overcast
Overcast
25.0 °F
Feels Like 25 °F
N
0.0
Wind Variable Wind from ENE

Today
High -- | Low -- °F
--% Chance of Precip.
Yesterday
High -- | Low -- °F
Precip. -- in
Pressure 29.63 in
Visibility 9.0 miles
Clouds Scattered Clouds 900 ft
Scattered Clouds 1600 ft
Overcast 2500 ft
Windchill 25 °F
Dew Point 25 °F
Humidity 99%
Rainfall 0.00 in
Snow Depth Not available.
6:46 AM 5:44 PM
Waning Crescent, 3% visible
SPECI KVOK 242229Z AUTO 36006KT 9SM UP SCT009 SCT016 OVC025 M04/M05 A2963 RMK AO2 FZDZE03FZRAB03E19UPB19 CIG 010V025
Pressure 29.63 in
Visibility 9.0 miles
Clouds Scattered Clouds 900 ft
Scattered Clouds 1600 ft
Overcast 2500 ft
Windchill 25 °F
Dew Point 25 °F
Humidity 99%
Rainfall 0.00 in
Snow Depth Not available.
6:46 AM 5:44 PM
Waning Crescent, 3% visible
SPECI KVOK 242229Z AUTO 36006KT 9SM UP SCT009 SCT016 OVC025 M04/M05 A2963 RMK AO2 FZDZE03FZRAB03E19UPB19 CIG 010V025

Get Your Daily Forecast Email!

Thanks for signing up!

Be on the lookout for a verification email in your inbox.

You'll start receiving the daily forecast at 8 AM.

×

10-Day Weather Forecast

Almanac

Astronomy

Feb. 24, 2017 Rise Set
Actual Time
Civil Twilight
Nautical Twilight
Astronomical Twilight
Moon
Length of Visible Light
Length of Day
Tomorrow will be .
, % of the Moon is Illuminated

Today's Extremes

State Highs State Lows

Community

WunderPhotos

Upload Photos

1,962,540 photos uploaded!

WunderBlog® & News

Nearby

Air Quality

  Air Quality AQ Index Pollutant
Not available.

Snow Depth

Station Depth Elevation

Earthquake Activity

City Distance Mag. Time & Date
Minimum magnitude displayed is 2.5.

Coastal Water Temperatures

Place Temperature

Stations

Nearby Weather Stations

Station Location Temp. Windchill Dew Point Humidity Wind Precip. Elev Updated Type
                   

Watches & Warnings

Winter Weather Advisory
Issued: 2:17 PM CST Feb. 24, 2017 – National Weather Service

... Winter Weather Advisory remains in effect until 6 am CST
Saturday...

* expect a wintry mix of light snow, rain, and even freezing rain
to switch over to all snow through the evening.

* Additional snow accumulation of 1 to 2 inches is expected,
along with a light glaze of ice.

* Some minor drifting snow is possible along open areas and ridge
tops.

* Roads are likely to become snow covered and slick through the
evening as snow returns.

Precautionary/preparedness actions...

A Winter Weather Advisory means that periods of snow, sleet, or
freezing rain will cause travel difficulties. Be prepared for
slippery roads and limited visibilities, and use caution while
driving. The latest Road conditions for the state you are calling
from can be obtained by calling 5 1 1.



Lawrence